createdAt,value
2019-02-14T00:02:23.247Z,8.93
2019-02-14T00:04:53.698Z,8.83
2019-02-14T00:07:23.927Z,7.53
2019-02-14T00:09:54.362Z,7.27
2019-02-14T00:12:24.582Z,7.53
2019-02-14T00:14:54.761Z,9.10
2019-02-14T00:17:24.994Z,8.00
2019-02-14T00:19:55.179Z,8.13
2019-02-14T00:22:25.403Z,7.90
2019-02-14T00:24:55.633Z,7.87
2019-02-14T00:27:25.866Z,8.13
2019-02-14T00:29:56.333Z,7.37
2019-02-14T00:32:26.598Z,6.87
2019-02-14T00:34:56.819Z,8.10
2019-02-14T00:37:27.023Z,7.73
2019-02-14T00:39:57.263Z,7.70
2019-02-14T00:42:27.675Z,7.23
2019-02-14T00:44:58.131Z,7.97
2019-02-14T00:47:28.572Z,8.60
2019-02-14T00:49:58.856Z,7.63
2019-02-14T00:52:29.102Z,7.47
2019-02-14T00:54:59.290Z,7.90
2019-02-14T00:57:29.766Z,7.53
2019-02-14T00:59:59.966Z,7.80
2019-02-14T01:02:30.167Z,8.10
2019-02-14T01:05:00.393Z,7.40
2019-02-14T01:07:30.591Z,8.00
2019-02-14T01:10:00.806Z,8.70
2019-02-14T01:12:31.001Z,8.00
2019-02-14T01:15:01.213Z,8.23
2019-02-14T01:17:31.406Z,8.43
2019-02-14T01:20:01.642Z,8.10
2019-02-14T01:22:31.835Z,7.90
2019-02-14T01:25:02.075Z,8.27
2019-02-14T01:27:32.498Z,9.10
2019-02-14T01:30:02.901Z,7.73
2019-02-14T01:32:33.094Z,7.17
2019-02-14T01:35:04.035Z,7.73
2019-02-14T01:37:34.540Z,8.53
2019-02-14T01:40:06.374Z,8.23
2019-02-14T01:42:36.564Z,7.60
2019-02-14T01:45:10.337Z,8.40
2019-02-14T01:47:40.525Z,8.23
2019-02-14T01:50:11.421Z,8.67
2019-02-14T01:52:41.641Z,8.63
2019-02-14T01:55:11.871Z,8.97
2019-02-14T01:57:42.058Z,7.87
2019-02-14T02:00:14.268Z,8.20
2019-02-14T02:02:44.479Z,8.40
2019-02-14T02:05:14.930Z,7.97
2019-02-14T02:07:45.215Z,7.73
2019-02-14T02:10:15.913Z,7.37
2019-02-14T02:12:46.193Z,7.20
2019-02-14T02:15:16.425Z,7.43
2019-02-14T02:17:46.621Z,7.27
2019-02-14T02:20:16.814Z,6.80
2019-02-14T02:22:47.033Z,6.77
2019-02-14T02:25:17.228Z,6.53
2019-02-14T02:27:47.814Z,6.70
2019-02-14T02:30:18.050Z,6.53
2019-02-14T02:32:48.340Z,6.60
2019-02-14T02:35:18.759Z,6.23
2019-02-14T02:37:49.206Z,6.17
2019-02-14T02:40:19.434Z,6.20
2019-02-14T02:42:49.678Z,7.03
2019-02-14T02:45:19.929Z,7.70
2019-02-14T02:47:50.178Z,7.17
2019-02-14T02:50:20.370Z,6.37
2019-02-14T02:52:50.610Z,6.93
2019-02-14T02:55:20.794Z,6.20
2019-02-14T02:57:51.019Z,7.10
2019-02-14T03:00:23.615Z,6.77
2019-02-14T03:02:53.835Z,7.23
2019-02-14T03:05:24.050Z,7.23
2019-02-14T03:07:54.254Z,7.30
2019-02-14T03:10:24.502Z,6.90
2019-02-14T03:12:54.750Z,6.07
2019-02-14T03:15:24.939Z,7.17
2019-02-14T03:17:55.162Z,7.00
2019-02-14T03:20:25.356Z,6.90
2019-02-14T03:22:55.830Z,7.07
2019-02-14T03:25:26.042Z,6.83
2019-02-14T03:27:56.275Z,7.07
2019-02-14T03:30:26.696Z,7.10
2019-02-14T03:32:56.926Z,6.47
2019-02-14T03:35:27.118Z,6.07
2019-02-14T03:37:57.356Z,6.47
2019-02-14T03:40:27.585Z,6.43
2019-02-14T03:42:57.797Z,6.27
2019-02-14T03:45:28.029Z,6.33
2019-02-14T03:47:58.222Z,6.40
2019-02-14T03:50:28.472Z,6.57
2019-02-14T03:52:58.899Z,6.10
2019-02-14T03:55:29.113Z,6.63
2019-02-14T03:57:59.547Z,6.47
2019-02-14T04:00:29.789Z,6.53
2019-02-14T04:02:59.990Z,6.57
2019-02-14T04:05:30.546Z,7.13
2019-02-14T04:08:00.780Z,7.37
2019-02-14T04:10:31.241Z,6.43
2019-02-14T04:13:01.679Z,7.50
2019-02-14T04:15:32.040Z,6.57
2019-02-14T04:18:02.286Z,6.47
2019-02-14T04:20:32.729Z,6.00
2019-02-14T04:23:02.934Z,6.73
2019-02-14T04:25:33.405Z,6.27
2019-02-14T04:28:03.914Z,6.53
2019-02-14T04:30:34.133Z,6.13
2019-02-14T04:33:04.330Z,6.20
2019-02-14T04:35:34.561Z,7.00
2019-02-14T04:38:04.850Z,7.23
2019-02-14T04:40:35.075Z,6.23
2019-02-14T04:43:05.299Z,5.43
2019-02-14T04:45:35.517Z,6.43
2019-02-14T04:48:05.978Z,6.13
2019-02-14T04:50:36.162Z,6.30
2019-02-14T04:53:06.390Z,6.70
2019-02-14T04:55:36.834Z,7.17
2019-02-14T04:58:07.057Z,6.00
2019-02-14T05:00:37.253Z,6.60
2019-02-14T05:03:07.714Z,5.60
2019-02-14T05:05:38.150Z,6.33
2019-02-14T05:08:08.381Z,6.67
2019-02-14T05:10:38.587Z,6.97
2019-02-14T05:13:08.806Z,6.47
2019-02-14T05:15:39.011Z,6.37
2019-02-14T05:18:09.475Z,6.77
2019-02-14T05:20:39.670Z,6.20
2019-02-14T05:23:09.900Z,6.23
2019-02-14T05:25:40.106Z,6.23
2019-02-14T05:28:10.321Z,5.57
2019-02-14T05:30:40.750Z,6.50
2019-02-14T05:33:10.974Z,5.93
2019-02-14T05:35:41.167Z,5.90
2019-02-14T05:38:11.621Z,5.60
2019-02-14T05:40:41.823Z,5.40
2019-02-14T05:43:12.048Z,5.87
2019-02-14T05:45:42.238Z,5.50
2019-02-14T05:48:12.462Z,5.20
2019-02-14T05:50:42.915Z,5.60
2019-02-14T05:53:13.378Z,5.73
2019-02-14T05:55:43.575Z,5.40
2019-02-14T05:58:13.810Z,5.97
2019-02-14T06:00:44.012Z,6.00
2019-02-14T06:03:14.487Z,5.93
2019-02-14T06:05:44.697Z,6.00
2019-02-14T06:08:14.921Z,6.13
2019-02-14T06:10:45.138Z,6.20
2019-02-14T06:13:15.345Z,5.80
2019-02-14T06:15:45.574Z,5.63
2019-02-14T06:18:16.066Z,6.30
2019-02-14T06:20:46.299Z,6.23
2019-02-14T06:23:16.566Z,7.77
2019-02-14T06:25:46.786Z,7.20
2019-02-14T06:28:16.981Z,6.53
2019-02-14T06:30:47.210Z,6.80
2019-02-14T06:33:17.427Z,6.40
2019-02-14T06:35:47.876Z,7.10
2019-02-14T06:38:18.073Z,7.17
2019-02-14T06:40:48.311Z,7.00
2019-02-14T06:43:18.506Z,7.20
2019-02-14T06:45:48.736Z,7.40
2019-02-14T06:48:18.964Z,7.60
2019-02-14T06:50:49.399Z,7.37
2019-02-14T06:53:19.621Z,8.60
2019-02-14T06:55:49.870Z,7.70
2019-02-14T06:58:20.070Z,7.30
2019-02-14T07:00:50.299Z,7.50
2019-02-14T07:03:20.722Z,6.53
2019-02-14T07:05:51.196Z,7.43
2019-02-14T07:08:21.400Z,7.13
2019-02-14T07:10:51.851Z,8.27
2019-02-14T07:13:22.085Z,7.27
2019-02-14T07:15:52.308Z,8.13
2019-02-14T07:18:22.534Z,7.90
2019-02-14T07:20:53.161Z,8.10
2019-02-14T07:23:23.374Z,7.80
2019-02-14T07:25:53.598Z,7.70
2019-02-14T07:28:24.538Z,7.30
2019-02-14T07:30:54.881Z,6.87
2019-02-14T07:33:26.189Z,6.30
2019-02-14T07:35:57.652Z,5.93
2019-02-14T07:38:33.075Z,7.47
2019-02-14T07:41:03.763Z,6.33
2019-02-14T07:43:33.442Z,6.03
2019-02-14T07:46:03.650Z,7.03
2019-02-14T07:48:33.884Z,6.03
2019-02-14T07:51:04.095Z,6.97
2019-02-14T07:53:34.575Z,6.90
2019-02-14T07:56:05.008Z,6.50
2019-02-14T07:58:35.465Z,7.10
2019-02-14T08:01:05.664Z,7.37
2019-02-14T08:03:35.888Z,9.53
2019-02-14T08:06:06.088Z,9.40
2019-02-14T08:08:36.321Z,10.00
2019-02-14T08:11:06.755Z,9.50
2019-02-14T08:13:37.236Z,9.30
2019-02-14T08:16:07.424Z,8.80
2019-02-14T08:18:37.646Z,10.47
2019-02-14T08:21:07.862Z,10.23
2019-02-14T08:23:38.307Z,10.57
2019-02-14T08:26:10.798Z,10.57
2019-02-14T08:28:40.457Z,10.83
2019-02-14T08:31:10.658Z,10.27
2019-02-14T08:33:40.888Z,10.17
2019-02-14T08:36:11.102Z,11.27
2019-02-14T08:38:41.343Z,11.00
2019-02-14T08:41:11.823Z,10.93
2019-02-14T08:43:42.056Z,11.77
2019-02-14T08:46:12.254Z,10.53
2019-02-14T08:48:42.502Z,11.30
2019-02-14T08:51:12.722Z,10.80
2019-02-14T08:53:43.179Z,10.47
2019-02-14T08:56:13.426Z,11.07
2019-02-14T08:58:43.859Z,11.43
2019-02-14T09:01:14.091Z,11.03
2019-02-14T09:03:44.281Z,12.13
2019-02-14T09:06:14.512Z,12.30
2019-02-14T09:08:44.715Z,11.97
2019-02-14T09:11:14.929Z,12.00
2019-02-14T09:13:45.130Z,11.97
2019-02-14T09:16:15.558Z,12.57
2019-02-14T09:18:45.792Z,13.17
2019-02-14T09:21:16.222Z,11.90
2019-02-14T09:23:46.420Z,12.23
2019-02-14T09:26:16.648Z,12.47
2019-02-14T09:28:46.837Z,12.13
2019-02-14T09:31:17.054Z,12.77
2019-02-14T09:33:47.278Z,12.90
2019-02-14T09:36:17.490Z,13.57
2019-02-14T09:38:47.687Z,11.60
2019-02-14T09:41:17.906Z,12.37
2019-02-14T09:43:48.108Z,11.87
2019-02-14T09:46:18.667Z,11.97
2019-02-14T09:48:48.855Z,12.00
2019-02-14T09:51:19.341Z,11.03
2019-02-14T09:53:49.545Z,11.13
2019-02-14T09:56:19.773Z,11.07
2019-02-14T09:58:50.199Z,10.87
2019-02-14T10:01:20.555Z,10.43
2019-02-14T10:03:50.802Z,10.30
2019-02-14T10:06:21.263Z,10.17
2019-02-14T10:08:51.457Z,9.87
2019-02-14T10:11:21.716Z,10.27
2019-02-14T10:13:52.220Z,9.73
2019-02-14T10:16:22.643Z,9.40
2019-02-14T10:18:53.106Z,9.80
2019-02-14T10:21:23.293Z,8.67
2019-02-14T10:23:53.743Z,9.60
2019-02-14T10:26:23.951Z,8.70
2019-02-14T10:28:54.471Z,9.60
2019-02-14T10:31:24.659Z,8.53
2019-02-14T10:33:54.877Z,9.03
2019-02-14T10:36:25.069Z,7.80
2019-02-14T10:38:55.287Z,8.10
2019-02-14T10:41:25.481Z,8.93
2019-02-14T10:43:55.930Z,8.17
2019-02-14T10:46:26.117Z,9.20
2019-02-14T10:48:56.346Z,9.53
2019-02-14T10:51:26.533Z,8.43
2019-02-14T10:53:56.762Z,8.37
2019-02-14T10:56:26.951Z,8.40
2019-02-14T10:58:59.042Z,7.43
2019-02-14T11:01:29.379Z,7.30
2019-02-14T11:03:59.908Z,6.97
2019-02-14T11:06:30.390Z,6.97
2019-02-14T11:09:00.850Z,6.80
2019-02-14T11:11:31.879Z,5.95
2019-02-14T11:14:02.341Z,6.20
2019-02-14T11:16:32.536Z,6.27
2019-02-14T11:19:03.575Z,5.95
2019-02-14T11:21:34.362Z,5.95
2019-02-14T11:24:05.403Z,5.85
2019-02-14T11:26:36.193Z,6.20
2019-02-14T11:29:06.961Z,6.17
2019-02-14T11:31:37.776Z,5.85
2019-02-14T11:34:08.546Z,5.50
2019-02-14T11:36:39.589Z,5.55
2019-02-14T11:39:10.345Z,5.30
2019-02-14T11:41:41.383Z,5.05
2019-02-14T11:44:12.419Z,5.97
2019-02-14T11:46:51.259Z,4.90
2019-02-14T11:49:15.682Z,3.08
2019-02-14T11:51:46.466Z,2.45
2019-02-14T11:54:17.232Z,3.02
2019-02-14T11:56:48.018Z,3.90
2019-02-14T11:59:20.510Z,5.20
2019-02-14T12:01:55.457Z,4.17
2019-02-14T12:04:24.011Z,4.97
2019-02-14T12:06:54.807Z,4.22
2019-02-14T12:09:25.807Z,3.95
2019-02-14T12:11:56.584Z,4.08
2019-02-14T12:14:27.580Z,3.92
2019-02-14T12:16:58.695Z,3.58
2019-02-14T12:19:29.775Z,3.00
2019-02-14T12:22:00.563Z,3.20
2019-02-14T12:24:31.314Z,2.92
2019-02-14T12:27:02.113Z,2.77
2019-02-14T12:29:33.106Z,2.22
2019-02-14T12:32:03.978Z,3.00
2019-02-14T12:34:34.747Z,2.85
2019-02-14T12:37:05.550Z,2.62
2019-02-14T12:39:36.345Z,2.55
2019-02-14T12:42:07.177Z,2.35
2019-02-14T12:44:38.163Z,2.40
2019-02-14T12:47:08.988Z,2.62
2019-02-14T12:49:39.774Z,2.02
2019-02-14T12:52:10.793Z,2.10
2019-02-14T12:54:41.546Z,2.10
2019-02-14T12:57:12.335Z,1.90
2019-02-14T12:59:43.094Z,2.05
2019-02-14T13:02:13.883Z,1.77
2019-02-14T13:04:44.630Z,1.92
2019-02-14T13:07:15.657Z,1.95
2019-02-14T13:09:46.683Z,1.87
2019-02-14T13:12:17.447Z,1.92
2019-02-14T13:14:48.218Z,1.80
2019-02-14T13:17:19.057Z,2.05
2019-02-14T13:19:49.852Z,1.70
2019-02-14T13:22:20.623Z,1.92
2019-02-14T13:24:51.412Z,1.75
2019-02-14T13:27:22.188Z,1.60
2019-02-14T13:29:52.974Z,1.57
2019-02-14T13:32:23.766Z,1.40
2019-02-14T13:34:54.549Z,1.67
2019-02-14T13:37:25.552Z,1.60
2019-02-14T13:39:56.329Z,1.52
2019-02-14T13:42:27.309Z,1.27
2019-02-14T13:44:58.119Z,1.50
2019-02-14T13:47:28.861Z,1.57
2019-02-14T13:49:59.880Z,1.42
2019-02-14T13:52:30.633Z,1.50
2019-02-14T13:55:01.414Z,1.20
2019-02-14T13:57:32.203Z,1.50
2019-02-14T14:00:04.778Z,1.40
2019-02-14T14:02:35.534Z,1.55
2019-02-14T14:05:06.323Z,1.20
2019-02-14T14:07:40.423Z,1.37
2019-02-14T14:10:10.280Z,1.50
2019-02-14T14:12:42.403Z,1.40
2019-02-14T14:15:13.537Z,1.50
2019-02-14T14:17:44.368Z,1.50
2019-02-14T14:20:15.118Z,1.37
2019-02-14T14:22:45.911Z,1.40
2019-02-14T14:25:16.952Z,1.40
2019-02-14T14:27:47.935Z,1.20
2019-02-14T14:30:18.795Z,1.02
2019-02-14T14:32:49.542Z,1.30
2019-02-14T14:35:20.571Z,1.60
2019-02-14T14:37:51.350Z,1.35
2019-02-14T14:40:22.299Z,1.15
2019-02-14T14:42:54.950Z,1.27
2019-02-14T14:45:36.398Z,1.55
2019-02-14T14:48:08.124Z,1.17
2019-02-14T14:50:38.922Z,1.55
2019-02-14T14:53:09.682Z,1.27
2019-02-14T14:55:40.469Z,1.52
2019-02-14T14:58:11.624Z,1.52
2019-02-14T15:00:42.472Z,1.17
2019-02-14T15:03:13.503Z,1.37
2019-02-14T15:05:44.266Z,2.02
2019-02-14T15:08:15.081Z,1.98
2019-02-14T15:10:45.839Z,1.42
2019-02-14T15:13:16.892Z,1.85
2019-02-14T15:15:47.656Z,1.90
2019-02-14T15:18:18.672Z,2.00
2019-02-14T15:20:49.427Z,1.70
2019-02-14T15:23:20.267Z,1.75
2019-02-14T15:25:51.062Z,1.82
2019-02-14T15:28:21.859Z,1.77
2019-02-14T15:30:52.610Z,1.40
2019-02-14T15:33:23.395Z,1.87
2019-02-14T15:35:54.386Z,1.60
2019-02-14T15:38:25.189Z,1.72
2019-02-14T15:40:56.198Z,1.70
2019-02-14T15:43:26.990Z,1.95
2019-02-14T15:45:57.976Z,1.87
2019-02-14T15:48:28.750Z,2.05
2019-02-14T15:50:59.497Z,1.80
2019-02-14T15:53:30.301Z,1.92
2019-02-14T15:56:01.053Z,1.62
2019-02-14T15:58:33.086Z,1.85
2019-02-14T16:01:04.492Z,1.35
2019-02-14T16:03:35.507Z,2.22
2019-02-14T16:06:06.352Z,1.55
2019-02-14T16:08:37.108Z,1.77
2019-02-14T16:11:09.734Z,1.80
2019-02-14T16:13:40.327Z,2.00
2019-02-14T16:16:11.118Z,1.65
2019-02-14T16:18:41.877Z,3.10
2019-02-14T16:21:12.742Z,1.77
2019-02-14T16:23:43.492Z,2.00
2019-02-14T16:26:14.891Z,2.22
2019-02-14T16:28:47.189Z,1.80
2019-02-14T16:31:17.985Z,2.10
2019-02-14T16:33:48.751Z,2.00
2019-02-14T16:36:20.784Z,1.82
2019-02-14T16:38:52.450Z,1.52
2019-02-14T16:41:23.465Z,2.50
2019-02-14T16:43:54.240Z,2.40
2019-02-14T16:46:25.005Z,2.85
2019-02-14T16:48:55.779Z,2.33
2019-02-14T16:51:26.558Z,2.10
2019-02-14T16:53:57.313Z,2.20
2019-02-14T16:56:28.364Z,2.60
2019-02-14T16:58:59.122Z,2.00
2019-02-14T17:01:30.180Z,2.17
2019-02-14T17:04:00.990Z,2.00
2019-02-14T17:06:31.775Z,2.20
2019-02-14T17:09:04.002Z,2.20
2019-02-14T17:11:35.039Z,2.27
2019-02-14T17:14:06.047Z,2.20
2019-02-14T17:16:36.834Z,2.20
2019-02-14T17:19:07.587Z,2.42
2019-02-14T17:21:38.333Z,2.12
2019-02-14T17:24:09.105Z,2.10
2019-02-14T17:26:39.883Z,1.95
2019-02-14T17:29:10.678Z,2.37
2019-02-14T17:31:41.715Z,2.30
2019-02-14T17:34:12.523Z,2.17
2019-02-14T17:36:43.510Z,2.17
2019-02-14T17:39:14.288Z,2.00
2019-02-14T17:41:45.270Z,2.30
2019-02-14T17:44:16.074Z,2.90
2019-02-14T17:46:47.061Z,2.50
2019-02-14T17:49:17.847Z,2.72
2019-02-14T17:51:48.826Z,2.70
2019-02-14T17:54:19.855Z,2.70
2019-02-14T17:56:50.839Z,2.30
2019-02-14T17:59:21.845Z,2.77
2019-02-14T18:01:52.857Z,3.30
2019-02-14T18:04:23.888Z,3.47
2019-02-14T18:06:54.645Z,3.40
2019-02-14T18:09:25.426Z,5.45
2019-02-14T18:11:56.186Z,4.28
2019-02-14T18:14:26.965Z,4.17
2019-02-14T18:16:57.730Z,3.62
2019-02-14T18:19:28.773Z,3.80
2019-02-14T18:21:59.777Z,3.33
2019-02-14T18:24:30.566Z,3.55
2019-02-14T18:27:01.551Z,3.50
2019-02-14T18:29:32.333Z,4.00
2019-02-14T18:32:03.092Z,3.80
2019-02-14T18:34:33.906Z,3.55
2019-02-14T18:37:04.663Z,3.95
2019-02-14T18:39:35.446Z,3.33
2019-02-14T18:42:06.211Z,3.42
2019-02-14T18:44:37.012Z,4.25
2019-02-14T18:47:07.777Z,4.08
2019-02-14T18:49:38.822Z,4.45
2019-02-14T18:52:09.679Z,3.65
2019-02-14T18:54:40.453Z,3.55
2019-02-14T18:57:11.244Z,3.60
2019-02-14T18:59:42.156Z,3.60
2019-02-14T19:02:13.207Z,3.25
2019-02-14T19:04:43.996Z,3.50
2019-02-14T19:07:14.973Z,3.83
2019-02-14T19:09:45.758Z,4.67
2019-02-14T19:12:16.755Z,5.20
2019-02-14T19:14:47.559Z,5.05
2019-02-14T19:17:18.348Z,4.55
2019-02-14T19:19:49.140Z,4.70
2019-02-14T19:22:19.923Z,5.05
2019-02-14T19:24:50.934Z,5.33
2019-02-14T19:27:21.724Z,4.90
2019-02-14T19:29:52.529Z,4.55
2019-02-14T19:32:23.355Z,4.67
2019-02-14T19:34:54.139Z,4.72
2019-02-14T19:37:25.183Z,4.47
2019-02-14T19:39:55.950Z,4.58
2019-02-14T19:42:26.962Z,4.33
2019-02-14T19:44:57.963Z,4.50
2019-02-14T19:47:28.763Z,5.05
2019-02-14T19:49:59.555Z,4.87
2019-02-14T19:52:30.354Z,4.83
2019-02-14T19:55:01.105Z,4.15
2019-02-14T19:57:32.125Z,4.03
2019-02-14T20:00:03.257Z,4.62
2019-02-14T20:02:33.486Z,5.27
2019-02-14T20:05:04.410Z,5.73
2019-02-14T20:07:34.865Z,5.37
2019-02-14T20:10:08.182Z,5.40
2019-02-14T20:12:38.415Z,4.83
2019-02-14T20:15:21.578Z,5.10
2019-02-14T20:17:51.781Z,4.80
2019-02-14T20:20:21.999Z,4.37
2019-02-14T20:22:52.184Z,5.43
2019-02-14T20:25:27.207Z,4.70
2019-02-14T20:27:57.684Z,5.20
2019-02-14T20:30:28.128Z,4.90
2019-02-14T20:33:04.746Z,4.40
2019-02-14T20:35:30.449Z,5.47
2019-02-14T20:38:00.709Z,5.10
2019-02-14T20:40:32.092Z,5.47
2019-02-14T20:43:02.433Z,5.10
2019-02-14T20:45:32.625Z,6.13
2019-02-14T20:48:02.866Z,5.30
2019-02-14T20:50:33.283Z,5.80
2019-02-14T20:53:03.730Z,5.10
2019-02-14T20:55:34.022Z,5.87
2019-02-14T20:58:04.230Z,5.03
2019-02-14T21:00:36.313Z,6.10
2019-02-14T21:03:06.853Z,5.87
2019-02-14T21:05:37.038Z,5.53
2019-02-14T21:08:07.254Z,5.17
2019-02-14T21:10:37.479Z,5.77
2019-02-14T21:13:07.707Z,5.27
2019-02-14T21:15:38.192Z,5.17
2019-02-14T21:18:08.397Z,5.97
2019-02-14T21:20:38.727Z,5.93
2019-02-14T21:23:09.230Z,5.83
2019-02-14T21:25:39.472Z,6.17
2019-02-14T21:28:09.656Z,5.87
2019-02-14T21:30:39.914Z,5.37
2019-02-14T21:33:10.159Z,5.93
2019-02-14T21:35:40.403Z,6.13
2019-02-14T21:38:11.492Z,6.10
2019-02-14T21:40:41.688Z,5.90
2019-02-14T21:43:12.120Z,5.63
2019-02-14T21:45:42.368Z,6.93
2019-02-14T21:48:12.606Z,6.83
2019-02-14T21:50:42.865Z,7.10
2019-02-14T21:53:13.111Z,7.07
2019-02-14T21:55:43.329Z,7.07
2019-02-14T21:58:13.554Z,7.83
2019-02-14T22:00:43.809Z,6.43
2019-02-14T22:03:14.150Z,6.50
2019-02-14T22:05:44.456Z,7.70
2019-02-14T22:08:14.698Z,7.03
2019-02-14T22:10:45.161Z,7.03
2019-02-14T22:13:15.612Z,7.30
2019-02-14T22:15:45.846Z,7.17
2019-02-14T22:18:16.059Z,7.07
2019-02-14T22:20:46.242Z,6.63
2019-02-14T22:23:16.474Z,7.43
2019-02-14T22:25:46.662Z,6.90
2019-02-14T22:28:16.882Z,6.50
2019-02-14T22:30:47.074Z,6.17
2019-02-14T22:33:17.296Z,6.40
2019-02-14T22:35:47.495Z,6.77
2019-02-14T22:38:18.012Z,5.83
2019-02-14T22:40:48.203Z,6.23
2019-02-14T22:43:18.695Z,6.00
2019-02-14T22:45:48.879Z,5.30
2019-02-14T22:48:19.104Z,4.80
2019-02-14T22:50:49.362Z,4.90
2019-02-14T22:53:19.746Z,4.83
2019-02-14T22:55:50.314Z,4.50
2019-02-14T22:58:20.755Z,4.97
2019-02-14T23:00:54.101Z,4.93
2019-02-14T23:03:24.626Z,5.20
2019-02-14T23:05:55.014Z,4.50
2019-02-14T23:08:25.246Z,4.37
2019-02-14T23:10:55.472Z,4.47
2019-02-14T23:13:25.709Z,4.53
2019-02-14T23:15:55.943Z,5.10
2019-02-14T23:18:26.582Z,4.73
2019-02-14T23:20:57.000Z,4.67
2019-02-14T23:23:27.234Z,4.37
2019-02-14T23:25:57.425Z,4.30
2019-02-14T23:28:27.656Z,4.40
2019-02-14T23:30:58.072Z,4.03
2019-02-14T23:33:28.298Z,4.13
2019-02-14T23:35:58.726Z,4.77
2019-02-14T23:38:28.967Z,4.53
2019-02-14T23:40:59.159Z,4.90
2019-02-14T23:43:29.378Z,4.40
2019-02-14T23:45:59.610Z,5.03
2019-02-14T23:48:31.070Z,5.40
2019-02-14T23:51:03.445Z,5.33
2019-02-14T23:53:33.410Z,5.60
2019-02-14T23:56:03.637Z,6.03
2019-02-14T23:58:33.839Z,6.50
